Time;durP1;ratioP1;P1;durP2;ratioP2;P2;SDS_P1;SDS_P2;PMS_P1;PMS_P2;Temp;Humidity;BMP_temperature;BMP_pressure;BME280_temperature;BME280_humidity;BME280_pressure;Samples;Min_cycle;Max_cycle;Signal;HPM_P1;HPM_P2
2021/10/22 00:00:08;;;;;;;22.47;6.03;;;;;;;5.15;100.00;100844.66;684560;28;1149;-52
2021/10/22 00:00:32;;;;;;;19.23;5.78;;;;;;;5.15;100.00;100849.84;686039;28;1102;-54
2021/10/22 00:00:53;;;;;;;21.87;6.07;;;;;;;5.16;100.00;100855.91;684000;28;4364;-52
2021/10/22 00:01:13;;;;;;;20.90;5.38;;;;;;;5.17;100.00;100855.06;684869;28;1140;-52
2021/10/22 00:01:33;;;;;;;22.43;5.73;;;;;;;5.15;100.00;100849.84;687039;28;1232;-52
2021/10/22 00:01:54;;;;;;;27.98;5.90;;;;;;;5.15;100.00;100855.03;688159;28;1325;-50
2021/10/22 00:02:16;;;;;;;21.90;5.90;;;;;;;5.17;100.00;100852.47;688238;28;3188;-54
2021/10/22 00:02:36;;;;;;;22.65;5.93;;;;;;;5.18;100.00;100857.69;687132;28;3571;-50
2021/10/22 00:02:57;;;;;;;21.30;5.50;;;;;;;5.19;100.00;100850.78;687994;28;1367;-51
2021/10/22 00:03:17;;;;;;;22.27;6.00;;;;;;;5.19;100.00;100855.97;687399;28;1248;-51
2021/10/22 00:03:37;;;;;;;27.00;6.23;;;;;;;5.20;100.00;100855.13;687922;28;1349;-52
2021/10/22 00:03:58;;;;;;;32.00;6.78;;;;;;;5.18;100.00;100854.19;687339;28;4489;-53
2021/10/22 00:04:18;;;;;;;32.63;6.20;;;;;;;5.17;100.00;100853.34;688125;28;1347;-50
2021/10/22 00:04:39;;;;;;;26.58;5.57;;;;;;;5.17;100.00;100855.06;687654;28;1290;-51
2021/10/22 00:05:00;;;;;;;20.88;5.22;;;;;;;5.32;100.00;100849.28;687867;28;1196;-52
2021/10/22 00:05:21;;;;;;;23.17;5.43;;;;;;;5.35;100.00;100846.78;688073;28;3997;-53
2021/10/22 00:05:42;;;;;;;19.00;4.90;;;;;;;5.33;100.00;100857.13;687669;28;1162;-51
2021/10/22 00:06:02;;;;;;;20.33;5.40;;;;;;;5.33;100.00;100849.34;688204;28;1223;-51
2021/10/22 00:06:23;;;;;;;21.25;5.18;;;;;;;5.31;100.00;100851.03;687549;28;1109;-54
2021/10/22 00:06:44;;;;;;;22.80;5.20;;;;;;;5.31;100.00;100851.03;684510;28;1215;-52
2021/10/22 00:07:04;;;;;;;20.42;4.97;;;;;;;5.37;100.00;100845.97;684623;28;4512;-52
2021/10/22 00:07:24;;;;;;;24.00;5.23;;;;;;;5.34;100.00;100851.06;684595;28;1007;-51
2021/10/22 00:07:45;;;;;;;22.10;5.47;;;;;;;5.31;100.00;100847.56;684460;28;1232;-51
2021/10/22 00:08:05;;;;;;;20.37;4.90;;;;;;;5.28;100.00;100846.66;685404;28;3180;-54
2021/10/22 00:08:25;;;;;;;22.97;4.73;;;;;;;5.24;100.00;100852.59;684400;28;3929;-53
2021/10/22 00:08:46;;;;;;;20.08;4.97;;;;;;;5.23;100.00;100857.75;688193;28;1295;-54
2021/10/22 00:09:06;;;;;;;16.77;4.73;;;;;;;5.20;100.00;100853.38;688629;28;1236;-53
2021/10/22 00:09:26;;;;;;;19.02;4.70;;;;;;;5.20;100.00;100855.13;685792;28;1303;-52
2021/10/22 00:09:47;;;;;;;22.93;5.00;;;;;;;5.18;100.00;100854.19;685475;28;978;-54
2021/10/22 00:10:08;;;;;;;17.58;4.40;;;;;;;5.19;100.00;100855.97;685306;28;4438;-55
2021/10/22 00:10:29;;;;;;;16.55;4.07;;;;;;;5.19;100.00;100851.66;685391;28;1217;-50
2021/10/22 00:10:49;;;;;;;15.88;3.92;;;;;;;5.19;100.00;100862.03;685640;28;1656;-52
2021/10/22 00:11:11;;;;;;;19.03;4.23;;;;;;;5.18;100.00;100851.59;683416;28;1935;-52
2021/10/22 00:11:31;;;;;;;17.58;4.22;;;;;;;5.19;100.00;100850.78;684725;28;3616;-52
2021/10/22 00:11:51;;;;;;;14.63;4.10;;;;;;;5.20;100.00;100857.72;684445;28;1145;-53
2021/10/22 00:12:12;;;;;;;19.85;4.00;;;;;;;5.31;100.00;100852.75;685231;28;1037;-51
2021/10/22 00:12:33;;;;;;;22.65;4.20;;;;;;;5.36;100.00;100844.22;683394;28;1315;-53
2021/10/22 00:12:53;;;;;;;16.43;4.13;;;;;;;5.35;100.00;100849.38;683829;28;4686;-51
2021/10/22 00:13:14;;;;;;;15.60;3.80;;;;;;;5.33;100.00;100846.75;687514;28;1156;-52
2021/10/22 00:13:34;;;;;;;14.95;3.83;;;;;;;5.33;100.00;100851.03;687318;28;1315;-53
2021/10/22 00:13:55;;;;;;;13.27;3.90;;;;;;;5.31;100.00;100851.03;686522;28;1216;-51
2021/10/22 00:14:15;;;;;;;18.33;4.27;;;;;;;5.29;100.00;100844.94;683216;28;3319;-54
2021/10/22 00:14:36;;;;;;;20.97;4.30;;;;;;;5.29;100.00;100848.41;684563;28;2392;-52
2021/10/22 00:14:56;;;;;;;17.50;3.90;;;;;;;5.39;100.00;100848.59;684844;28;1324;-51
2021/10/22 00:15:17;;;;;;;16.45;4.00;;;;;;;5.39;100.00;100846.84;685030;28;1304;-52
2021/10/22 00:15:37;;;;;;;16.85;3.85;;;;;;;5.48;100.00;100845.28;684473;28;1421;-53
2021/10/22 00:15:58;;;;;;;17.97;3.90;;;;;;;5.52;100.00;100844.50;684030;28;4610;-51
2021/10/22 00:16:18;;;;;;;16.92;3.92;;;;;;;5.48;100.00;100850.47;688179;28;1382;-53
2021/10/22 00:16:40;;;;;;;12.97;3.83;;;;;;;5.45;100.00;100849.59;686494;28;2834;-55
2021/10/22 00:17:00;;;;;;;13.43;3.28;;;;;;;5.40;100.00;100856.41;686889;28;3267;-54
2021/10/22 00:17:21;;;;;;;16.30;3.70;;;;;;;5.35;100.00;100852.81;686760;28;3622;-51
2021/10/22 00:17:42;;;;;;;17.02;3.92;;;;;;;5.39;100.00;100848.59;688611;28;1139;-51
2021/10/22 00:18:03;;;;;;;18.52;3.78;;;;;;;5.37;100.00;100856.34;688590;28;1222;-53
2021/10/22 00:18:24;;;;;;;17.00;3.93;;;;;;;5.36;100.00;100856.28;688470;28;1363;-50
2021/10/22 00:18:45;;;;;;;17.58;3.95;;;;;;;5.35;100.00;100851.97;686844;28;1145;-52
2021/10/22 00:19:06;;;;;;;17.73;3.80;;;;;;;5.33;100.00;100859.72;687407;28;4582;-51
2021/10/22 00:19:26;;;;;;;16.83;4.17;;;;;;;5.32;100.00;100855.38;688594;28;1173;-52
2021/10/22 00:19:47;;;;;;;15.43;4.07;;;;;;;5.32;100.00;100852.78;688135;28;1037;-54
2021/10/22 00:20:09;;;;;;;18.63;4.10;;;;;;;5.34;100.00;100861.44;687708;28;3470;-51
2021/10/22 00:20:29;;;;;;;17.88;3.70;;;;;;;5.33;100.00;100854.53;687862;28;1248;-51
2021/10/22 00:20:50;;;;;;;17.13;3.90;;;;;;;5.32;100.00;100852.78;687882;28;963;-51
2021/10/22 00:21:10;;;;;;;18.38;4.10;;;;;;;5.32;100.00;100852.78;687039;28;1097;-52
2021/10/22 00:21:31;;;;;;;17.17;3.90;;;;;;;5.32;100.00;100855.38;688790;28;1092;-61
2021/10/22 00:21:51;;;;;;;17.00;4.00;;;;;;;5.31;100.00;100852.75;687780;28;4736;-51
2021/10/22 00:22:12;;;;;;;19.17;4.43;;;;;;;5.29;100.00;100852.72;689021;28;1002;-50
2021/10/22 00:22:32;;;;;;;19.88;4.43;;;;;;;5.26;100.00;100855.22;688180;28;1165;-51
2021/10/22 00:22:52;;;;;;;18.50;4.07;;;;;;;5.26;100.00;100853.53;687540;28;1080;-55
2021/10/22 00:23:13;;;;;;;18.77;4.20;;;;;;;5.26;100.00;100855.22;687651;28;3933;-51
2021/10/22 00:23:33;;;;;;;14.63;4.10;;;;;;;5.26;100.00;100852.63;688746;28;1051;-51
2021/10/22 00:23:53;;;;;;;16.95;4.00;;;;;;;5.24;100.00;100855.19;688699;28;1189;-50
2021/10/22 00:24:14;;;;;;;20.63;3.97;;;;;;;5.22;100.00;100856.91;688653;28;1069;-53
2021/10/22 00:24:34;;;;;;;25.38;4.28;;;;;;;5.22;100.00;100854.31;688298;28;1377;-53
2021/10/22 00:24:57;;;;;;;22.83;4.10;;;;;;;5.22;100.00;100858.59;684324;28;4524;-52
2021/10/22 00:25:19;;;;;;;15.50;4.20;;;;;;;5.20;100.00;100853.38;685460;28;1093;-51
2021/10/22 00:25:39;;;;;;;19.88;4.00;;;;;;;5.21;100.00;100854.28;684609;28;1325;-52
2021/10/22 00:26:01;;;;;;;17.73;3.55;;;;;;;5.22;100.00;100861.19;685377;28;3098;-51
2021/10/22 00:26:22;;;;;;;17.90;3.75;;;;;;;5.21;100.00;100856.88;684580;28;2498;-51
2021/10/22 00:26:42;;;;;;;13.10;3.60;;;;;;;5.21;100.00;100860.34;685855;28;1234;-51
2021/10/22 00:27:05;;;;;;;12.43;3.80;;;;;;;5.21;100.00;100857.75;687994;28;1264;-50
2021/10/22 00:27:26;;;;;;;17.13;4.22;;;;;;;5.21;100.00;100854.28;685514;28;1727;-51
2021/10/22 00:27:47;;;;;;;19.43;4.83;;;;;;;5.20;100.00;100855.97;684266;28;1564;-54
2021/10/22 00:28:07;;;;;;;19.75;4.63;;;;;;;5.22;100.00;100863.78;684470;28;4585;-51
2021/10/22 00:28:28;;;;;;;16.60;3.90;;;;;;;5.21;100.00;100855.16;686422;28;1314;-50
2021/10/22 00:28:48;;;;;;;14.60;3.88;;;;;;;5.22;100.00;100856.91;685217;28;1056;-51
2021/10/22 00:29:09;;;;;;;15.02;3.88;;;;;;;5.21;100.00;100859.47;682434;28;3784;-51
2021/10/22 00:29:29;;;;;;;15.97;3.97;;;;;;;5.20;100.00;100862.91;685483;28;1258;-52
2021/10/22 00:29:49;;;;;;;16.88;4.00;;;;;;;5.20;100.00;100855.97;685822;28;1488;-51
2021/10/22 00:30:10;;;;;;;16.53;3.87;;;;;;;5.21;100.00;100860.34;685234;28;1073;-52
2021/10/22 00:30:30;;;;;;;15.13;3.90;;;;;;;5.23;100.00;100852.59;682897;28;1083;-51
2021/10/22 00:30:50;;;;;;;17.87;4.40;;;;;;;5.23;100.00;100852.59;682644;28;4556;-53
2021/10/22 00:31:11;;;;;;;16.80;4.27;;;;;;;5.23;100.00;100852.59;686222;28;1128;-51
2021/10/22 00:31:32;;;;;;;14.17;3.80;;;;;;;5.22;100.00;100858.59;685868;28;1167;-50
2021/10/22 00:31:52;;;;;;;17.33;4.72;;;;;;;5.19;100.00;100858.53;685627;28;3237;-51
2021/10/22 00:32:13;;;;;;;16.67;5.00;;;;;;;5.36;100.00;100846.81;685895;28;3449;-52
2021/10/22 00:32:34;;;;;;;17.38;4.90;;;;;;;5.35;100.00;100850.22;688276;28;1524;-54
2021/10/22 00:32:54;;;;;;;15.80;4.57;;;;;;;5.35;100.00;100851.97;688434;28;1438;-53
2021/10/22 00:33:15;;;;;;;16.25;4.97;;;;;;;5.35;100.00;100846.78;688463;28;1145;-53
2021/10/22 00:33:37;;;;;;;19.58;5.25;;;;;;;5.34;100.00;100845.03;687940;28;1076;-52
2021/10/22 00:33:58;;;;;;;21.05;5.53;;;;;;;5.35;100.00;100847.66;687035;28;4478;-52
2021/10/22 00:34:18;;;;;;;21.33;5.93;;;;;;;5.38;100.00;100846.84;687848;28;1081;-50
2021/10/22 00:34:38;;;;;;;23.10;5.95;;;;;;;5.35;100.00;100847.66;685899;28;1238;-50
2021/10/22 00:34:59;;;;;;;27.77;7.27;;;;;;;5.34;100.00;100848.47;684242;28;1854;-55
2021/10/22 00:35:21;;;;;;;23.38;6.43;;;;;;;5.33;100.00;100843.28;684023;28;3995;-51
2021/10/22 00:35:41;;;;;;;21.80;6.25;;;;;;;5.31;100.00;100850.16;685470;28;1057;-52
2021/10/22 00:36:02;;;;;;;21.50;5.73;;;;;;;5.31;100.00;100842.38;684807;28;1456;-52
2021/10/22 00:36:24;;;;;;;17.88;5.40;;;;;;;5.30;100.00;100849.25;685304;28;1414;-52
2021/10/22 00:36:44;;;;;;;19.55;5.55;;;;;;;5.30;100.00;100849.25;687330;28;1255;-50
2021/10/22 00:37:05;;;;;;;21.40;5.83;;;;;;;5.29;100.00;100853.59;687574;28;4330;-53
2021/10/22 00:37:25;;;;;;;29.38;6.57;;;;;;;5.28;100.00;100856.16;686955;28;1195;-54
2021/10/22 00:37:46;;;;;;;25.50;6.45;;;;;;;5.27;100.00;100849.22;684722;28;3491;-52
2021/10/22 00:38:06;;;;;;;26.03;6.97;;;;;;;5.26;100.00;100848.34;684519;28;3516;-53
2021/10/22 00:38:28;;;;;;;25.88;7.50;;;;;;;5.26;100.00;100850.94;682503;28;961;-51
2021/10/22 00:38:48;;;;;;;26.67;9.05;;;;;;;5.25;100.00;100862.16;682045;28;1178;-52
2021/10/22 00:39:10;;;;;;;36.90;9.67;;;;;;;5.24;100.00;100859.53;682619;28;3937;-51
2021/10/22 00:39:31;;;;;;;42.15;10.27;;;;;;;5.23;100.00;100853.47;682606;28;1107;-52
2021/10/22 00:39:52;;;;;;;44.17;10.80;;;;;;;5.22;100.00;100856.00;684421;28;4705;-51
2021/10/22 00:40:13;;;;;;;37.28;11.50;;;;;;;5.22;100.00;100858.59;686369;28;1070;-50
2021/10/22 00:40:33;;;;;;;40.53;12.15;;;;;;;5.23;100.00;100857.75;688408;28;1033;-50
2021/10/22 00:40:54;;;;;;;37.70;11.83;;;;;;;5.22;100.00;100854.31;687748;28;2997;-52
2021/10/22 00:41:17;;;;;;;33.43;11.80;;;;;;;5.22;100.00;100859.50;687805;28;2348;-51
2021/10/22 00:41:40;;;;;;;40.95;12.27;;;;;;;5.22;100.00;100856.00;684478;28;1266;-50
2021/10/22 00:42:03;;;;;;;45.92;12.82;;;;;;;5.26;100.00;100856.13;684672;28;1082;-54
2021/10/22 00:42:24;;;;;;;46.58;12.35;;;;;;;5.37;100.00;100860.63;685368;28;1073;-51
2021/10/22 00:42:45;;;;;;;36.07;10.60;;;;;;;5.35;100.00;100851.97;683196;28;1228;-51
2021/10/22 00:43:06;;;;;;;35.70;10.13;;;;;;;5.32;100.00;100857.97;681636;28;4480;-52
2021/10/22 00:43:31;;;;;;;30.15;10.85;;;;;;;5.32;100.00;100852.78;683193;28;1296;-51
2021/10/22 00:43:51;;;;;;;35.65;11.80;;;;;;;5.32;100.00;100851.88;682304;28;3391;-53
2021/10/22 00:44:12;;;;;;;33.53;10.17;;;;;;;5.28;100.00;100846.66;683332;28;1359;-52
2021/10/22 00:44:36;;;;;;;29.92;7.18;;;;;;;5.26;100.00;100844.84;685001;28;1046;-55
2021/10/22 00:45:00;;;;;;;32.53;7.43;;;;;;;5.26;100.00;100847.44;686207;28;2316;-54
2021/10/22 00:45:21;;;;;;;32.60;7.43;;;;;;;5.23;100.00;100848.28;686198;28;2194;-52
2021/10/22 00:45:42;;;;;;;23.50;6.32;;;;;;;5.23;100.00;100847.41;685679;28;1014;-51
2021/10/22 00:46:03;;;;;;;21.02;6.35;;;;;;;5.22;100.00;100854.31;684215;28;4497;-50
2021/10/22 00:46:27;;;;;;;25.95;6.15;;;;;;;5.22;100.00;100849.13;684500;28;1299;-50
2021/10/22 00:46:48;;;;;;;26.77;6.60;;;;;;;5.21;100.00;100857.75;683706;28;3284;-50
2021/10/22 00:47:09;;;;;;;27.27;6.13;;;;;;;5.20;100.00;100852.53;684963;28;3568;-53
2021/10/22 00:47:29;;;;;;;25.58;5.72;;;;;;;5.18;100.00;100857.69;684686;28;1099;-55
2021/10/22 00:47:50;;;;;;;22.63;4.85;;;;;;;5.17;100.00;100857.66;685136;28;1187;-51
2021/10/22 00:48:10;;;;;;;20.33;4.70;;;;;;;5.15;100.00;100851.56;684186;28;1898;-53
2021/10/22 00:48:31;;;;;;;22.73;5.80;;;;;;;5.14;100.00;100852.38;686257;28;1073;-54
2021/10/22 00:48:52;;;;;;;22.00;5.93;;;;;;;5.14;100.00;100862.75;684635;28;4475;-51
2021/10/22 00:49:13;;;;;;;22.73;6.00;;;;;;;5.13;100.00;100861.03;686562;28;1125;-54
2021/10/22 00:49:33;;;;;;;19.75;4.80;;;;;;;5.13;100.00;100861.88;686202;28;1047;-52
2021/10/22 00:49:54;;;;;;;16.63;4.33;;;;;;;5.13;100.00;100864.47;684988;28;3212;-51
2021/10/22 00:50:16;;;;;;;20.98;4.65;;;;;;;5.16;100.00;100861.09;685545;28;1339;-51
2021/10/22 00:50:40;;;;;;;21.52;4.60;;;;;;;5.15;100.00;100855.03;685764;28;1569;-52
2021/10/22 00:51:01;;;;;;;19.40;4.50;;;;;;;5.15;100.00;100849.84;685649;28;1178;-51
2021/10/22 00:51:22;;;;;;;21.30;4.60;;;;;;;5.15;100.00;100851.56;681417;28;1161;-52
2021/10/22 00:51:43;;;;;;;18.65;4.65;;;;;;;5.17;100.00;100853.34;681778;28;1173;-53
2021/10/22 00:52:04;;;;;;;18.10;4.73;;;;;;;5.18;100.00;100855.09;683448;28;4476;-51
2021/10/22 00:52:27;;;;;;;20.73;4.90;;;;;;;5.19;100.00;100845.59;685694;28;1132;-51
2021/10/22 00:52:48;;;;;;;16.42;4.10;;;;;;;5.28;100.00;100849.22;684640;28;3140;-52
2021/10/22 00:53:10;;;;;;;16.37;4.00;;;;;;;5.38;100.00;100846.84;686237;28;3329;-51
2021/10/22 00:53:36;;;;;;;14.88;3.72;;;;;;;5.34;100.00;100848.47;688553;28;1458;-50
2021/10/22 00:53:57;;;;;;;16.48;3.72;;;;;;;5.39;100.00;100844.28;688662;28;940;-55
2021/10/22 00:54:18;;;;;;;16.53;3.90;;;;;;;5.45;100.00;100844.41;687293;28;1349;-51
2021/10/22 00:54:38;;;;;;;13.10;3.30;;;;;;;5.58;100.00;100840.31;687147;28;1115;-51
2021/10/22 00:54:59;;;;;;;15.80;3.50;;;;;;;5.73;100.00;100849.19;687182;28;5129;-51
2021/10/22 00:55:19;;;;;;;18.23;3.27;;;;;;;5.84;100.00;100845.06;688288;28;1057;-53
2021/10/22 00:55:40;;;;;;;13.33;3.00;;;;;;;5.82;99.57;100838.13;685169;28;3564;-55
2021/10/22 00:56:01;;;;;;;13.15;2.97;;;;;;;5.76;99.31;100841.47;682914;28;4665;-50
2021/10/22 00:56:22;;;;;;;11.73;2.90;;;;;;;5.67;99.95;100837.00;683676;28;1358;-53
2021/10/22 00:56:43;;;;;;;11.30;2.70;;;;;;;5.63;100.00;100836.09;683054;28;1294;-51
2021/10/22 00:57:03;;;;;;;13.10;3.17;;;;;;;5.61;100.00;100842.94;683675;28;1066;-53
2021/10/22 00:57:25;;;;;;;13.38;3.22;;;;;;;5.58;100.00;100839.41;684031;28;1058;-52
2021/10/22 00:57:46;;;;;;;11.55;3.22;;;;;;;5.57;100.00;100845.47;686817;28;1286;-51
2021/10/22 00:58:06;;;;;;;14.27;3.70;;;;;;;5.55;100.00;100841.97;686853;28;4388;-52
2021/10/22 00:58:27;;;;;;;16.63;3.85;;;;;;;5.49;100.00;100840.13;687692;28;1398;-52
2021/10/22 00:58:48;;;;;;;16.75;3.80;;;;;;;5.45;100.00;100841.81;686398;28;3524;-52
2021/10/22 00:59:09;;;;;;;15.15;4.10;;;;;;;5.44;100.00;100847.84;687817;28;4058;-53
2021/10/22 00:59:30;;;;;;;15.20;4.35;;;;;;;5.44;100.00;100846.94;688245;28;1036;-50
2021/10/22 00:59:50;;;;;;;16.92;4.05;;;;;;;5.42;100.00;100839.13;684119;28;988;-51
2021/10/22 01:00:13;;;;;;;13.45;3.55;;;;;;;5.42;100.00;100839.13;684956;28;1105;-54
2021/10/22 01:00:34;;;;;;;12.47;3.33;;;;;;;5.53;100.00;100836.75;684527;28;1225;-50
2021/10/22 01:00:54;;;;;;;14.00;3.60;;;;;;;5.51;100.00;100846.22;685784;28;4465;-52
2021/10/22 01:01:15;;;;;;;16.90;3.70;;;;;;;5.75;100.00;100837.16;685721;28;1041;-51
2021/10/22 01:01:39;;;;;;;15.73;4.10;;;;;;;5.71;100.00;100843.13;686339;28;3538;-53
2021/10/22 01:02:00;;;;;;;16.00;4.20;;;;;;;5.67;100.00;100844.78;688298;28;1336;-51
2021/10/22 01:02:20;;;;;;;15.13;4.10;;;;;;;5.67;100.00;100843.91;684643;28;1502;-53
2021/10/22 01:02:41;;;;;;;17.63;4.90;;;;;;;5.66;99.83;100847.34;684889;28;1219;-52
2021/10/22 01:03:03;;;;;;;16.10;4.90;;;;;;;5.63;100.00;100846.47;685206;28;1207;-51
2021/10/22 01:03:24;;;;;;;15.10;4.47;;;;;;;5.61;100.00;100844.69;686046;28;1146;-54
2021/10/22 01:03:44;;;;;;;13.33;3.97;;;;;;;5.58;100.00;100844.59;682476;28;1262;-51
2021/10/22 01:04:08;;;;;;;16.97;4.27;;;;;;;5.56;100.00;100841.13;682048;28;4432;-51
2021/10/22 01:04:29;;;;;;;15.52;4.00;;;;;;;5.53;100.00;100847.13;681816;28;3424;-53
2021/10/22 01:04:49;;;;;;;15.47;4.27;;;;;;;5.50;100.00;100851.38;682492;28;3605;-52
2021/10/22 01:05:13;;;;;;;17.73;4.43;;;;;;;5.48;100.00;100840.09;681758;28;1184;-51
2021/10/22 01:05:35;;;;;;;17.70;4.57;;;;;;;5.49;100.00;100850.50;683701;28;1328;-54
2021/10/22 01:05:59;;;;;;;20.10;4.32;;;;;;;5.46;100.00;100846.13;684068;28;1239;-50
2021/10/22 01:06:20;;;;;;;15.45;4.00;;;;;;;5.55;100.00;100845.44;686052;28;1073;-54
2021/10/22 01:06:41;;;;;;;14.95;3.90;;;;;;;5.54;100.00;100842.78;686454;28;1488;-50
2021/10/22 01:07:02;;;;;;;16.73;4.03;;;;;;;5.52;100.00;100844.50;687490;28;4422;-50
2021/10/22 01:07:23;;;;;;;15.10;3.80;;;;;;;5.50;100.00;100848.78;687441;28;1384;-50
2021/10/22 01:07:43;;;;;;;15.02;3.80;;;;;;;5.46;100.00;100843.53;686794;28;3401;-51
2021/10/22 01:08:06;;;;;;;12.70;4.00;;;;;;;5.45;100.00;100849.59;687605;28;1979;-52
2021/10/22 01:08:30;;;;;;;16.13;3.90;;;;;;;5.41;100.00;100842.59;684705;28;1359;-52
2021/10/22 01:08:51;;;;;;;16.10;4.20;;;;;;;5.39;100.00;100844.28;684133;28;1144;-51
2021/10/22 01:09:12;;;;;;;14.77;4.30;;;;;;;5.41;100.00;100852.06;685575;28;1173;-50
2021/10/22 01:09:33;;;;;;;15.25;3.95;;;;;;;5.39;100.00;100843.41;684651;28;818;-51
2021/10/22 01:09:53;;;;;;;15.82;3.72;;;;;;;5.41;100.00;100850.38;683471;28;4365;-53
2021/10/22 01:10:14;;;;;;;14.77;3.60;;;;;;;5.41;100.00;100852.97;685374;28;1595;-52
2021/10/22 01:10:39;;;;;;;16.70;4.13;;;;;;;5.39;100.00;100848.59;687572;28;2112;-55
2021/10/22 01:11:00;;;;;;;15.40;3.90;;;;;;;5.38;100.00;100845.09;686866;28;3823;-51
2021/10/22 01:11:21;;;;;;;17.55;4.38;;;;;;;5.37;100.00;100848.56;686002;28;1529;-55
2021/10/22 01:11:41;;;;;;;16.23;4.20;;;;;;;5.54;100.00;100845.38;685463;28;1141;-50
2021/10/22 01:12:03;;;;;;;15.07;3.87;;;;;;;5.55;100.00;100847.16;686626;28;1202;-51
2021/10/22 01:12:23;;;;;;;14.38;3.80;;;;;;;5.53;100.00;100844.53;686231;28;1108;-52
2021/10/22 01:12:44;;;;;;;16.40;3.83;;;;;;;5.67;100.00;100849.97;685476;28;1256;-51
2021/10/22 01:13:05;;;;;;;16.70;3.85;;;;;;;5.78;99.90;100848.44;685138;28;4638;-54
2021/10/22 01:13:27;;;;;;;14.32;3.78;;;;;;;5.74;99.29;100853.56;688177;28;3154;-55
2021/10/22 01:13:47;;;;;;;13.15;4.07;;;;;;;5.75;99.16;100852.72;686870;28;2234;-54
2021/10/22 01:14:08;;;;;;;14.27;3.90;;;;;;;5.72;99.16;100848.34;687799;28;1455;-52
2021/10/22 01:14:29;;;;;;;10.98;3.65;;;;;;;5.66;100.00;100849.94;687720;28;1188;-52
2021/10/22 01:14:51;;;;;;;15.05;3.67;;;;;;;5.58;100.00;100848.09;684562;28;1065;-50
2021/10/22 01:15:12;;;;;;;17.27;4.05;;;;;;;5.54;100.00;100859.25;685505;28;1132;-54
2021/10/22 01:15:33;;;;;;;19.40;4.00;;;;;;;5.51;100.00;100847.94;685514;28;1208;-53
2021/10/22 01:15:54;;;;;;;16.38;3.67;;;;;;;5.50;100.00;100856.53;684653;28;4618;-52
2021/10/22 01:16:14;;;;;;;14.10;3.77;;;;;;;5.47;100.00;100854.78;683696;28;1133;-54
2021/10/22 01:16:37;;;;;;;15.53;4.10;;;;;;;5.59;100.00;100846.34;683423;28;2250;-54
2021/10/22 01:16:58;;;;;;;14.20;4.57;;;;;;;5.58;100.00;100853.28;685550;28;990;-56
2021/10/22 01:17:41;;;;;;;13.57;4.00;;;;;;;5.61;100.00;100847.28;686133;28;1458;-53
2021/10/22 01:18:03;;;;;;;13.45;3.60;;;;;;;5.55;100.00;100852.34;682775;28;1367;-53
2021/10/22 01:18:27;;;;;;;13.90;3.87;;;;;;;5.50;100.00;100848.78;685150;28;1161;-50
2021/10/22 01:18:47;;;;;;;13.88;4.00;;;;;;;5.61;100.00;100845.53;684364;28;1185;-55
2021/10/22 01:19:14;;;;;;;14.90;4.17;;;;;;;5.65;100.00;100848.19;684501;28;5421;-56
2021/10/22 01:19:35;;;;;;;12.75;3.70;;;;;;;5.60;100.00;100848.13;684967;28;4155;-54
2021/10/22 01:19:56;;;;;;;13.68;3.40;;;;;;;5.53;100.00;100849.72;686172;28;1266;-51
2021/10/22 01:20:22;;;;;;;13.97;3.77;;;;;;;5.48;100.00;100847.88;685843;28;1287;-52
2021/10/22 01:20:43;;;;;;;15.30;4.30;;;;;;;5.45;100.00;100854.78;685441;28;1050;-51
2021/10/22 01:21:04;;;;;;;15.52;4.15;;;;;;;5.44;100.00;100852.13;685989;28;1094;-50
2021/10/22 01:21:24;;;;;;;13.43;3.80;;;;;;;5.42;100.00;100853.81;685951;28;1201;-53
2021/10/22 01:21:47;;;;;;;12.05;3.20;;;;;;;5.54;100.00;100847.97;685467;28;1178;-53
2021/10/22 01:22:14;;;;;;;17.05;3.55;;;;;;;5.52;100.00;100854.88;685911;28;4333;-51
2021/10/22 01:22:35;;;;;;;14.52;3.53;;;;;;;5.45;100.00;100854.78;687279;28;3346;-51
2021/10/22 01:22:56;;;;;;;13.10;3.50;;;;;;;5.37;100.00;100856.34;687859;28;978;-53
2021/10/22 01:23:17;;;;;;;12.77;3.57;;;;;;;5.42;100.00;100852.09;684862;28;1545;-54
2021/10/22 01:23:39;;;;;;;10.77;3.25;;;;;;;5.63;100.00;100858.53;684996;28;926;-52
2021/10/22 01:23:59;;;;;;;11.77;3.30;;;;;;;5.60;100.00;100854.16;685171;28;1237;-52
2021/10/22 01:24:20;;;;;;;14.07;3.60;;;;;;;5.57;100.00;100848.06;685569;28;1142;-54
2021/10/22 01:24:40;;;;;;;14.45;3.20;;;;;;;5.55;100.00;100849.75;685710;28;1303;-51
2021/10/22 01:25:01;;;;;;;16.57;3.60;;;;;;;5.51;100.00;100855.72;686113;28;5420;-51
2021/10/22 01:25:26;;;;;;;15.05;3.42;;;;;;;5.51;100.00;100858.31;687938;28;3601;-52
2021/10/22 01:25:49;;;;;;;13.95;3.50;;;;;;;5.48;100.00;100861.72;687906;28;3379;-54
2021/10/22 01:26:09;;;;;;;15.35;3.60;;;;;;;5.41;100.00;100852.97;689206;28;1322;-50
2021/10/22 01:26:30;;;;;;;15.77;3.93;;;;;;;5.41;100.00;100852.97;687890;28;1156;-54
2021/10/22 01:26:50;;;;;;;13.27;3.83;;;;;;;5.53;100.00;100854.03;688035;28;1373;-50
2021/10/22 01:27:11;;;;;;;12.27;3.38;;;;;;;5.55;100.00;100858.41;688858;28;1196;-51
2021/10/22 01:27:31;;;;;;;15.30;3.47;;;;;;;5.52;100.00;100852.28;688587;28;1089;-51
2021/10/22 01:27:53;;;;;;;12.52;3.22;;;;;;;5.50;100.00;100856.53;688224;28;4776;-51
2021/10/22 01:28:13;;;;;;;15.90;3.22;;;;;;;5.45;100.00;100856.47;688493;28;1945;-53
2021/10/22 01:28:34;;;;;;;15.35;3.70;;;;;;;5.41;100.00;100852.97;688331;28;3827;-51
2021/10/22 01:28:54;;;;;;;13.80;3.60;;;;;;;5.41;100.00;100863.34;687633;28;1327;-51
2021/10/22 01:29:16;;;;;;;13.20;3.60;;;;;;;5.38;100.00;100862.38;689299;28;1251;-50
2021/10/22 01:29:37;;;;;;;15.38;4.05;;;;;;;5.37;100.00;100860.63;687888;28;1113;-52
2021/10/22 01:29:58;;;;;;;16.87;4.50;;;;;;;5.39;100.00;100862.41;688665;28;1275;-51
2021/10/22 01:30:21;;;;;;;17.05;4.75;;;;;;;5.44;100.00;100862.50;688487;28;1167;-51
2021/10/22 01:30:41;;;;;;;14.40;4.20;;;;;;;5.42;100.00;100859.00;687992;28;1271;-53
2021/10/22 01:31:02;;;;;;;16.70;4.90;;;;;;;5.41;100.00;100862.44;688340;28;4350;-51
2021/10/22 01:31:22;;;;;;;16.63;4.60;;;;;;;5.44;100.00;100859.91;687173;28;3473;-54
2021/10/22 01:31:43;;;;;;;14.37;4.20;;;;;;;5.44;100.00;100865.97;688023;28;1285;-53
2021/10/22 01:32:04;;;;;;;14.90;4.15;;;;;;;5.48;100.00;100863.44;686068;28;1223;-51
2021/10/22 01:32:24;;;;;;;15.05;4.00;;;;;;;5.43;100.00;100864.22;685705;28;1123;-53
2021/10/22 01:32:45;;;;;;;15.57;3.78;;;;;;;5.43;100.00;100866.81;684333;28;1046;-52
2021/10/22 01:33:08;;;;;;;15.25;4.10;;;;;;;5.41;100.00;100862.44;686669;28;1199;-52
2021/10/22 01:33:29;;;;;;;14.30;3.90;;;;;;;5.41;100.00;100863.34;684249;28;1263;-50
2021/10/22 01:33:49;;;;;;;14.95;3.90;;;;;;;5.47;100.00;100862.56;684951;28;1219;-52
2021/10/22 01:34:10;;;;;;;14.52;4.13;;;;;;;5.51;100.00;100860.91;687076;28;4450;-52
2021/10/22 01:34:30;;;;;;;14.70;4.10;;;;;;;5.48;100.00;100860.84;688257;28;3927;-52
2021/10/22 01:34:51;;;;;;;14.43;4.07;;;;;;;5.43;100.00;100861.63;688323;28;1434;-50
2021/10/22 01:35:12;;;;;;;17.08;4.40;;;;;;;5.41;100.00;100857.25;688235;28;1377;-52
2021/10/22 01:35:34;;;;;;;15.20;4.43;;;;;;;5.36;100.00;100856.28;688694;28;1145;-50
2021/10/22 01:35:54;;;;;;;14.32;4.55;;;;;;;5.34;100.00;100858.84;688897;28;1232;-53
2021/10/22 01:36:15;;;;;;;14.53;4.10;;;;;;;5.36;100.00;100864.97;689175;28;1034;-53
2021/10/22 01:36:36;;;;;;;14.90;3.92;;;;;;;5.34;100.00;100864.03;687258;28;1379;-50
2021/10/22 01:36:56;;;;;;;14.10;3.70;;;;;;;5.29;100.00;100858.78;688654;28;4648;-52
2021/10/22 01:37:17;;;;;;;14.80;3.90;;;;;;;5.45;100.00;100859.06;687953;28;3315;-50
2021/10/22 01:37:38;;;;;;;12.13;4.10;;;;;;;5.69;100.00;100852.59;688110;28;1275;-54
2021/10/22 01:37:59;;;;;;;13.20;3.70;;;;;;;5.90;100.00;100854.72;688968;28;1356;-51
2021/10/22 01:38:23;;;;;;;14.50;3.88;;;;;;;5.90;97.91;100852.97;688210;28;1067;-51
2021/10/22 01:38:44;;;;;;;13.45;4.10;;;;;;;5.83;98.04;100856.31;688369;28;1144;-53
2021/10/22 01:39:04;;;;;;;15.37;3.97;;;;;;;5.73;97.94;100854.38;688687;28;1085;-51
2021/10/22 01:39:24;;;;;;;13.18;3.80;;;;;;;5.64;98.60;100855.09;687336;28;3926;-54
2021/10/22 01:39:45;;;;;;;14.63;3.97;;;;;;;5.60;99.54;100850.72;688582;28;1045;-50